<?xml version="1.0" encoding="UTF-8" standalone="no" ?>
<gpx xmlns="http://www.topografix.com/GPX/1/1" xmlns:xsi="http://www.w3.org/2001/XMLSchema-instance" xsi:schemaLocation="http://www.topografix.com/GPX/1/1 http://www.topografix.com/GPX/1/1/gpx.xsd" version="1.1" creator="VisuGPX - https://www.visugpx.com">
  <metadata>
    <name>2013 08 25 - VTT Corronsac</name>
    <desc><![CDATA[2013 08 25 - VTT Corronsac]]></desc>
  </metadata>
  <trk>
    <name><![CDATA[Tracé actuel: 25 AOU 2013 15:47]]></name>
    <trkseg>
      <trkpt lat="43.44372" lon="1.50923">
        <ele>227</ele>
        <time>2013-08-25T14:43:31Z</time>
      </trkpt>
      <trkpt lat="43.44378" lon="1.50932">
        <ele>227</ele>
        <time>2013-08-25T14:43:46Z</time>
      </trkpt>
      <trkpt lat="43.44378" lon="1.50931">
        <ele>227</ele>
        <time>2013-08-25T14:44:04Z</time>
      </trkpt>
      <trkpt lat="43.44378" lon="1.5093">
        <ele>227</ele>
        <time>2013-08-25T14:44:20Z</time>
      </trkpt>
      <trkpt lat="43.44377" lon="1.50931">
        <ele>227</ele>
        <time>2013-08-25T14:44:26Z</time>
      </trkpt>
      <trkpt lat="43.44373" lon="1.50948">
        <ele>227</ele>
        <time>2013-08-25T14:44:34Z</time>
      </trkpt>
      <trkpt lat="43.44372" lon="1.5095">
        <ele>227</ele>
        <time>2013-08-25T14:44:35Z</time>
      </trkpt>
      <trkpt lat="43.44369" lon="1.50963">
        <ele>228</ele>
        <time>2013-08-25T14:44:40Z</time>
      </trkpt>
      <trkpt lat="43.44367" lon="1.50967">
        <ele>228</ele>
        <time>2013-08-25T14:44:46Z</time>
      </trkpt>
      <trkpt lat="43.44366" lon="1.50968">
        <ele>228</ele>
        <time>2013-08-25T14:44:55Z</time>
      </trkpt>
      <trkpt lat="43.44367" lon="1.50969">
        <ele>228</ele>
        <time>2013-08-25T14:45:06Z</time>
      </trkpt>
      <trkpt lat="43.44367" lon="1.5097">
        <ele>228</ele>
        <time>2013-08-25T14:45:16Z</time>
      </trkpt>
      <trkpt lat="43.44364" lon="1.50986">
        <ele>228</ele>
        <time>2013-08-25T14:45:23Z</time>
      </trkpt>
      <trkpt lat="43.44363" lon="1.50988">
        <ele>228</ele>
        <time>2013-08-25T14:45:24Z</time>
      </trkpt>
      <trkpt lat="43.4436" lon="1.51003">
        <ele>230</ele>
        <time>2013-08-25T14:45:32Z</time>
      </trkpt>
      <trkpt lat="43.44358" lon="1.51016">
        <ele>230</ele>
        <time>2013-08-25T14:45:38Z</time>
      </trkpt>
      <trkpt lat="43.44358" lon="1.5102">
        <ele>230</ele>
        <time>2013-08-25T14:45:40Z</time>
      </trkpt>
      <trkpt lat="43.44357" lon="1.51037">
        <ele>231</ele>
        <time>2013-08-25T14:45:49Z</time>
      </trkpt>
      <trkpt lat="43.44357" lon="1.51041">
        <ele>231</ele>
        <time>2013-08-25T14:45:52Z</time>
      </trkpt>
      <trkpt lat="43.44355" lon="1.51052">
        <ele>231</ele>
        <time>2013-08-25T14:45:59Z</time>
      </trkpt>
      <trkpt lat="43.44355" lon="1.51054">
        <ele>231</ele>
        <time>2013-08-25T14:46:00Z</time>
      </trkpt>
      <trkpt lat="43.44355" lon="1.51059">
        <ele>231</ele>
        <time>2013-08-25T14:46:03Z</time>
      </trkpt>
      <trkpt lat="43.44353" lon="1.51071">
        <ele>232</ele>
        <time>2013-08-25T14:46:10Z</time>
      </trkpt>
      <trkpt lat="43.44354" lon="1.51076">
        <ele>232</ele>
        <time>2013-08-25T14:46:12Z</time>
      </trkpt>
      <trkpt lat="43.44349" lon="1.51095">
        <ele>233</ele>
        <time>2013-08-25T14:46:21Z</time>
      </trkpt>
      <trkpt lat="43.44349" lon="1.51118">
        <ele>232</ele>
        <time>2013-08-25T14:46:28Z</time>
      </trkpt>
      <trkpt lat="43.44353" lon="1.51156">
        <ele>232</ele>
        <time>2013-08-25T14:46:36Z</time>
      </trkpt>
      <trkpt lat="43.44359" lon="1.51207">
        <ele>232</ele>
        <time>2013-08-25T14:46:45Z</time>
      </trkpt>
      <trkpt lat="43.44359" lon="1.51213">
        <ele>232</ele>
        <time>2013-08-25T14:46:46Z</time>
      </trkpt>
      <trkpt lat="43.44366" lon="1.5127">
        <ele>233</ele>
        <time>2013-08-25T14:46:56Z</time>
      </trkpt>
      <trkpt lat="43.4437" lon="1.51295">
        <ele>234</ele>
        <time>2013-08-25T14:47:03Z</time>
      </trkpt>
      <trkpt lat="43.44373" lon="1.51322">
        <ele>234</ele>
        <time>2013-08-25T14:47:12Z</time>
      </trkpt>
      <trkpt lat="43.44376" lon="1.51338">
        <ele>236</ele>
        <time>2013-08-25T14:47:18Z</time>
      </trkpt>
      <trkpt lat="43.44376" lon="1.51341">
        <ele>236</ele>
        <time>2013-08-25T14:47:19Z</time>
      </trkpt>
      <trkpt lat="43.44378" lon="1.51351">
        <ele>236</ele>
        <time>2013-08-25T14:47:21Z</time>
      </trkpt>
      <trkpt lat="43.44379" lon="1.51357">
        <ele>236</ele>
        <time>2013-08-25T14:47:22Z</time>
      </trkpt>
      <trkpt lat="43.44388" lon="1.51401">
        <ele>236</ele>
        <time>2013-08-25T14:47:27Z</time>
      </trkpt>
      <trkpt lat="43.44404" lon="1.51476">
        <ele>240</ele>
        <time>2013-08-25T14:47:35Z</time>
      </trkpt>
      <trkpt lat="43.44407" lon="1.51514">
        <ele>242</ele>
        <time>2013-08-25T14:47:41Z</time>
      </trkpt>
      <trkpt lat="43.44404" lon="1.5155">
        <ele>243</ele>
        <time>2013-08-25T14:47:49Z</time>
      </trkpt>
      <trkpt lat="43.444" lon="1.51561">
        <ele>243</ele>
        <time>2013-08-25T14:47:54Z</time>
      </trkpt>
      <trkpt lat="43.44396" lon="1.5156">
        <ele>243</ele>
        <time>2013-08-25T14:48:00Z</time>
      </trkpt>
      <trkpt lat="43.44397" lon="1.5156">
        <ele>243</ele>
        <time>2013-08-25T14:48:01Z</time>
      </trkpt>
      <trkpt lat="43.44399" lon="1.51561">
        <ele>243</ele>
        <time>2013-08-25T14:48:02Z</time>
      </trkpt>
      <trkpt lat="43.44401" lon="1.51562">
        <ele>243</ele>
        <time>2013-08-25T14:48:03Z</time>
      </trkpt>
      <trkpt lat="43.44402" lon="1.51564">
        <ele>243</ele>
        <time>2013-08-25T14:48:04Z</time>
      </trkpt>
      <trkpt lat="43.44403" lon="1.51565">
        <ele>243</ele>
        <time>2013-08-25T14:48:05Z</time>
      </trkpt>
      <trkpt lat="43.44404" lon="1.51566">
        <ele>243</ele>
        <time>2013-08-25T14:48:06Z</time>
      </trkpt>
      <trkpt lat="43.44404" lon="1.51568">
        <ele>243</ele>
        <time>2013-08-25T14:48:07Z</time>
      </trkpt>
      <trkpt lat="43.44403" lon="1.5157">
        <ele>243</ele>
        <time>2013-08-25T14:48:08Z</time>
      </trkpt>
      <trkpt lat="43.44402" lon="1.5157">
        <ele>243</ele>
        <time>2013-08-25T14:48:09Z</time>
      </trkpt>
      <trkpt lat="43.44401" lon="1.51569">
        <ele>243</ele>
        <time>2013-08-25T14:48:10Z</time>
      </trkpt>
      <trkpt lat="43.44401" lon="1.51568">
        <ele>243</ele>
        <time>2013-08-25T14:48:11Z</time>
      </trkpt>
      <trkpt lat="43.44401" lon="1.51566">
        <ele>243</ele>
        <time>2013-08-25T14:48:12Z</time>
      </trkpt>
      <trkpt lat="43.44402" lon="1.51564">
        <ele>243</ele>
        <time>2013-08-25T14:48:13Z</time>
      </trkpt>
      <trkpt lat="43.44403" lon="1.51563">
        <ele>243</ele>
        <time>2013-08-25T14:48:14Z</time>
      </trkpt>
      <trkpt lat="43.44405" lon="1.51563">
        <ele>243</ele>
        <time>2013-08-25T14:48:15Z</time>
      </trkpt>
      <trkpt lat="43.44406" lon="1.51562">
        <ele>243</ele>
        <time>2013-08-25T14:48:16Z</time>
      </trkpt>
      <trkpt lat="43.44405" lon="1.51555">
        <ele>243</ele>
        <time>2013-08-25T14:48:20Z</time>
      </trkpt>
      <trkpt lat="43.444" lon="1.5156">
        <ele>243</ele>
        <time>2013-08-25T14:48:25Z</time>
      </trkpt>
      <trkpt lat="43.44396" lon="1.51562">
        <ele>243</ele>
        <time>2013-08-25T14:48:32Z</time>
      </trkpt>
      <trkpt lat="43.44396" lon="1.51564">
        <ele>243</ele>
        <time>2013-08-25T14:48:33Z</time>
      </trkpt>
      <trkpt lat="43.44402" lon="1.51567">
        <ele>243</ele>
        <time>2013-08-25T14:48:39Z</time>
      </trkpt>
      <trkpt lat="43.44407" lon="1.51568">
        <ele>243</ele>
        <time>2013-08-25T14:48:43Z</time>
      </trkpt>
      <trkpt lat="43.44401" lon="1.51561">
        <ele>243</ele>
        <time>2013-08-25T14:48:48Z</time>
      </trkpt>
      <trkpt lat="43.44392" lon="1.51563">
        <ele>243</ele>
        <time>2013-08-25T14:48:54Z</time>
      </trkpt>
      <trkpt lat="43.44389" lon="1.51562">
        <ele>243</ele>
        <time>2013-08-25T14:48:56Z</time>
      </trkpt>
    </trkseg>
  </trk>
</gpx>